createdAt,value
2022-12-11T00:00:47.300Z,5.50
2022-12-11T00:05:53.802Z,8.82
2022-12-11T00:10:58.683Z,7.03
2022-12-11T00:16:02.912Z,4.45
2022-12-11T00:21:13.970Z,10.15
2022-12-11T00:26:19.465Z,3.08
2022-12-11T00:31:24.694Z,11.75
2022-12-11T00:36:30.750Z,8.07
2022-12-11T00:41:35.494Z,5.68
2022-12-11T00:46:39.505Z,6.88
2022-12-11T00:51:44.923Z,4.78
2022-12-11T00:56:49.693Z,6.15
2022-12-11T01:01:53.696Z,4.60
2022-12-11T01:07:00.187Z,6.40
2022-12-11T01:12:06.304Z,5.97
2022-12-11T01:17:10.716Z,6.93
2022-12-11T01:22:16.453Z,5.05
2022-12-11T01:27:20.413Z,2.28
2022-12-11T01:32:24.414Z,3.67
2022-12-11T01:37:30.899Z,2.40
2022-12-11T01:42:35.783Z,5.78
2022-12-11T01:47:40.037Z,3.88
2022-12-11T01:52:48.339Z,7.30
2022-12-11T01:57:54.735Z,3.33
2022-12-11T02:02:58.952Z,7.03
2022-12-11T02:08:05.634Z,7.20
2022-12-11T02:13:15.691Z,7.47
2022-12-11T02:18:28.333Z,8.40
2022-12-11T02:23:57.888Z,3.53
2022-12-11T02:29:07.642Z,6.15
2022-12-11T02:34:17.592Z,4.63
2022-12-11T02:39:24.516Z,6.32
2022-12-11T02:44:33.684Z,10.90
2022-12-11T02:49:37.956Z,6.47
2022-12-11T02:54:44.828Z,4.93
2022-12-11T02:59:52.442Z,8.07
2022-12-11T03:05:00.272Z,4.75
2022-12-11T03:10:06.408Z,1.75
2022-12-11T03:15:15.889Z,4.22
2022-12-11T03:20:31.075Z,3.58
2022-12-11T03:25:41.529Z,4.65
2022-12-11T03:30:49.673Z,4.32
2022-12-11T03:35:57.523Z,7.32
2022-12-11T03:41:05.698Z,2.47
2022-12-11T03:46:13.045Z,8.23
2022-12-11T03:51:19.360Z,7.40
2022-12-11T03:56:25.537Z,7.57
2022-12-11T04:01:31.228Z,6.68
2022-12-11T04:06:35.271Z,4.43
2022-12-11T04:11:40.315Z,7.95
2022-12-11T04:16:45.715Z,15.55
2022-12-11T04:22:08.598Z,18.85
2022-12-11T04:27:13.329Z,9.93
2022-12-11T04:32:19.010Z,14.30
2022-12-11T04:37:23.492Z,16.05
2022-12-11T04:42:27.594Z,11.60
2022-12-11T04:47:33.325Z,11.88
2022-12-11T04:52:37.691Z,14.38
2022-12-11T04:57:45.345Z,12.82
2022-12-11T05:02:51.352Z,10.15
2022-12-11T05:07:55.457Z,11.63
2022-12-11T05:12:59.426Z,11.73
2022-12-11T05:18:04.867Z,19.90
2022-12-11T05:23:09.342Z,24.25
2022-12-11T05:28:13.553Z,14.68
2022-12-11T05:33:18.957Z,14.70
2022-12-11T05:38:23.808Z,20.27
2022-12-11T05:43:30.786Z,23.55
2022-12-11T05:48:39.415Z,26.85
2022-12-11T05:53:46.636Z,17.03
2022-12-11T05:58:51.897Z,14.32
2022-12-11T06:03:58.433Z,16.90
2022-12-11T06:09:03.308Z,14.07
2022-12-11T06:14:07.282Z,21.25
2022-12-11T06:19:17.464Z,18.80
2022-12-11T06:24:21.425Z,24.88
2022-12-11T06:29:26.468Z,33.65
2022-12-11T06:34:31.996Z,21.33
2022-12-11T06:39:36.216Z,6.75
2022-12-11T06:44:40.237Z,17.45
2022-12-11T06:49:46.316Z,31.83
2022-12-11T06:54:50.447Z,39.17
2022-12-11T06:59:55.226Z,31.40
2022-12-11T07:05:00.945Z,20.20
2022-12-11T07:10:08.610Z,7.82
2022-12-11T07:15:14.028Z,10.00
2022-12-11T07:20:19.815Z,10.07
2022-12-11T07:25:24.906Z,12.85
2022-12-11T07:30:29.773Z,16.08
2022-12-11T07:35:37.837Z,15.93
2022-12-11T07:40:42.008Z,9.38
2022-12-11T07:45:46.247Z,16.52
2022-12-11T07:50:51.698Z,12.20
2022-12-11T07:55:56.235Z,5.53
2022-12-11T08:01:00.386Z,6.88
2022-12-11T08:06:06.806Z,8.25
2022-12-11T08:11:14.944Z,4.85
2022-12-11T08:16:20.686Z,8.57
2022-12-11T08:21:28.595Z,5.95
2022-12-11T08:26:33.596Z,3.85
2022-12-11T08:31:37.561Z,5.72
2022-12-11T08:36:43.995Z,8.00
2022-12-11T08:41:52.022Z,6.03
2022-12-11T08:46:56.006Z,3.92
2022-12-11T08:52:01.487Z,4.57
2022-12-11T08:57:05.993Z,10.98
2022-12-11T09:02:13.947Z,16.05
2022-12-11T09:07:20.784Z,24.50
2022-12-11T09:12:25.514Z,23.10
2022-12-11T09:17:29.735Z,23.20
2022-12-11T09:22:38.458Z,25.40
2022-12-11T09:27:42.773Z,44.72
2022-12-11T09:32:46.918Z,85.13
2022-12-11T09:37:52.290Z,94.43
2022-12-11T09:43:01.760Z,81.47
2022-12-11T09:48:08.693Z,83.30
2022-12-11T09:53:21.231Z,39.25
2022-12-11T09:58:32.256Z,47.03
2022-12-11T10:04:08.700Z,33.30
2022-12-11T10:09:21.763Z,22.20
2022-12-11T10:14:34.772Z,32.42
2022-12-11T10:19:40.093Z,44.20
2022-12-11T10:30:18.929Z,17.35
2022-12-11T10:35:38.461Z,10.95
2022-12-11T10:45:56.226Z,9.68
2022-12-11T10:51:03.970Z,10.80
2022-12-11T10:56:09.669Z,9.13
2022-12-11T11:01:17.771Z,8.00
2022-12-11T11:06:23.416Z,10.18
2022-12-11T11:11:34.025Z,11.55
2022-12-11T11:16:40.006Z,4.75
2022-12-11T11:21:51.613Z,4.38
2022-12-11T11:27:15.484Z,7.90
2022-12-11T11:32:23.792Z,8.43
2022-12-11T11:37:33.070Z,10.23
2022-12-11T11:42:48.467Z,13.27
2022-12-11T11:48:09.551Z,20.83
2022-12-11T11:53:21.898Z,9.88
2022-12-11T11:58:33.488Z,7.78
2022-12-11T12:03:37.622Z,6.35
2022-12-11T12:08:48.548Z,6.50
2022-12-11T12:14:12.853Z,6.80
2022-12-11T12:19:42.907Z,9.10
2022-12-11T12:24:56.947Z,12.37
2022-12-11T12:30:07.167Z,9.27
2022-12-11T12:35:21.183Z,11.73
2022-12-11T12:40:32.813Z,30.25
2022-12-11T12:45:47.602Z,30.38
2022-12-11T12:50:53.108Z,34.70
2022-12-11T12:55:58.790Z,36.75
2022-12-11T13:01:16.205Z,29.00
2022-12-11T13:06:31.901Z,63.95
2022-12-11T13:11:37.546Z,29.17
2022-12-11T13:16:44.906Z,35.65
2022-12-11T13:21:57.503Z,25.27
2022-12-11T13:27:11.808Z,25.88
2022-12-11T13:32:31.479Z,21.02
2022-12-11T13:37:40.178Z,21.63
2022-12-11T13:42:51.833Z,28.83
2022-12-11T13:47:59.744Z,42.38
2022-12-11T13:53:05.221Z,47.25
2022-12-11T13:58:18.654Z,68.63
2022-12-11T14:03:25.931Z,48.45
2022-12-11T14:08:35.734Z,66.32
2022-12-11T14:13:42.507Z,68.03
2022-12-11T14:18:59.250Z,56.15
2022-12-11T14:24:07.589Z,173.85
2022-12-11T14:29:29.850Z,87.80
2022-12-11T14:34:39.123Z,49.97
2022-12-11T14:44:55.606Z,38.28
2022-12-11T14:50:05.566Z,27.40
2022-12-11T14:55:15.259Z,18.15
2022-12-11T15:00:25.148Z,15.52
2022-12-11T15:05:40.371Z,16.00
2022-12-11T15:11:02.119Z,8.20
2022-12-11T15:16:08.963Z,7.78
2022-12-11T15:21:17.229Z,2.83
2022-12-11T15:26:22.242Z,2.35
2022-12-11T15:31:36.732Z,3.95
2022-12-11T15:36:43.458Z,2.97
2022-12-11T15:41:49.422Z,3.40
2022-12-11T15:46:53.674Z,4.22
2022-12-11T15:52:08.135Z,4.47
2022-12-11T15:57:19.868Z,16.85
2022-12-11T16:02:24.486Z,22.27
2022-12-11T16:07:34.348Z,12.13
2022-12-11T16:12:40.108Z,9.70
2022-12-11T16:17:53.105Z,9.05
2022-12-11T16:22:59.510Z,7.38
2022-12-11T16:28:03.774Z,4.93
2022-12-11T16:33:12.344Z,12.63
2022-12-11T16:38:18.904Z,11.10
2022-12-11T16:43:24.752Z,9.50
2022-12-11T16:48:29.425Z,7.57
2022-12-11T16:53:35.058Z,3.83
2022-12-11T16:58:40.652Z,13.63
2022-12-11T17:03:45.617Z,5.70
2022-12-11T17:08:52.256Z,8.07
2022-12-11T17:13:59.641Z,12.77
2022-12-11T17:19:05.633Z,13.27
2022-12-11T17:24:11.773Z,10.30
2022-12-11T17:29:18.894Z,14.13
2022-12-11T17:34:23.132Z,8.68
2022-12-11T17:39:29.742Z,8.50
2022-12-11T17:44:37.895Z,7.85
2022-12-11T17:49:41.993Z,4.55
2022-12-11T17:54:50.364Z,7.10
2022-12-11T17:59:58.277Z,2.30
2022-12-11T18:05:03.626Z,3.08
2022-12-11T18:10:10.264Z,5.47
2022-12-11T18:15:19.122Z,6.28
2022-12-11T18:20:24.575Z,8.32
2022-12-11T18:25:32.884Z,6.15
2022-12-11T18:30:37.471Z,9.75
2022-12-11T18:35:42.360Z,9.50
2022-12-11T18:40:48.050Z,2.78
2022-12-11T18:45:52.580Z,19.58
2022-12-11T18:50:56.695Z,4.03
2022-12-11T18:56:06.377Z,10.32
2022-12-11T19:01:17.544Z,13.10
2022-12-11T19:06:25.680Z,6.20
2022-12-11T19:11:38.140Z,7.53
2022-12-11T19:16:46.006Z,14.18
2022-12-11T19:21:59.767Z,9.57
2022-12-11T19:27:13.729Z,6.75
2022-12-11T19:32:18.489Z,4.20
2022-12-11T19:37:23.951Z,7.85
2022-12-11T19:42:34.840Z,8.43
2022-12-11T19:47:42.060Z,9.38
2022-12-11T19:52:46.738Z,11.98
2022-12-11T19:57:57.085Z,29.48
2022-12-11T20:03:01.479Z,16.80
2022-12-11T20:08:35.710Z,16.25
2022-12-11T20:13:32.954Z,5.88
2022-12-11T20:18:45.497Z,8.55
2022-12-11T20:23:53.657Z,11.18
2022-12-11T20:28:59.437Z,12.05
2022-12-11T20:34:07.997Z,6.20
2022-12-11T20:39:17.536Z,5.70
2022-12-11T20:44:25.992Z,6.68
2022-12-11T20:49:30.395Z,3.30
2022-12-11T20:54:35.362Z,21.88
2022-12-11T20:59:41.195Z,8.65
2022-12-11T21:04:45.370Z,6.65
2022-12-11T21:09:51.187Z,8.88
2022-12-11T21:14:58.157Z,9.63
2022-12-11T21:20:02.535Z,4.68
2022-12-11T21:25:07.393Z,3.83
2022-12-11T21:30:14.214Z,5.32
2022-12-11T21:35:18.554Z,4.20
2022-12-11T21:40:23.562Z,3.97
2022-12-11T21:45:59.750Z,4.30
2022-12-11T21:50:53.895Z,3.22
2022-12-11T21:55:58.928Z,4.32
2022-12-11T22:01:04.917Z,7.38
2022-12-11T22:06:09.620Z,8.05
2022-12-11T22:11:16.049Z,9.07
2022-12-11T22:16:24.577Z,5.82
2022-12-11T22:21:29.763Z,5.90
2022-12-11T22:26:34.168Z,6.13
2022-12-11T22:31:39.459Z,4.35
2022-12-11T22:36:43.508Z,11.23
2022-12-11T22:41:47.804Z,8.85
2022-12-11T22:46:54.492Z,13.50
2022-12-11T22:51:58.628Z,12.73
2022-12-11T22:57:02.852Z,8.85
2022-12-11T23:02:08.849Z,6.47
2022-12-11T23:07:12.822Z,6.55
2022-12-11T23:12:19.018Z,5.38
2022-12-11T23:17:24.485Z,7.35
2022-12-11T23:22:29.352Z,8.43
2022-12-11T23:27:33.680Z,8.75
2022-12-11T23:32:40.573Z,17.67
2022-12-11T23:37:44.697Z,6.30
2022-12-11T23:42:49.348Z,8.05
2022-12-11T23:47:54.727Z,9.55
2022-12-11T23:53:02.375Z,7.60
2022-12-11T23:58:06.628Z,12.45
